• Join FlightAware (Why Join?)
  • Login
  • US Flag 
08:14PM EDT


 

Airport Tracker/Info


-or-


 

Live Flight TrackerFlight Track Log ✈ N789EX ✈ 02-May-2014 ✈ KBFI - KMWH

Flight Track Log - Related Links

Times and Time Zones

All times are in EDT time to prevent confusion due to time zone crossing. See the N789EX flight status page for this flight to view local times or setup timezone preferences in your user account.

Time Position Orientation Groundspeed Altitude Reporting Facility
EDT Latitude Longitude Course Direction KTS MPH feet Rate Location/Type
12:50PM 47.5112 -122.2860 147° Southeast 166 191 1,400  Level FlightAware ADS-B
12:50PM 47.5037 -122.2780 144° Southeast 182 209 1,800 1,500 Climbing FlightAware ADS-B
12:51PM 47.4918 -122.2650 143° Southeast 219 252 2,100 1,920 Climbing FlightAware ADS-B
12:51PM 47.4788 -122.2500 141° Southeast 237 273 2,800 2,700 Climbing FlightAware ADS-B
12:51PM 47.4750 -122.2450 135° Southeast 246 283 3,000 1,980 Climbing FlightAware ADS-B
12:51PM 47.4723 -122.2400 127° Southeast 254 292 3,100 2,520 Climbing FlightAware ADS-B
12:51PM 47.4704 -122.2350 119° Southeast 258 297 3,300 3,420 Climbing FlightAware ADS-B
12:51PM 47.4685 -122.2290 111° Southeast 264 304 3,500 3,420 Climbing FlightAware ADS-B
12:51PM 47.4674 -122.2220 103° East 268 308 3,700 3,720 Climbing FlightAware ADS-B
12:51PM 47.4664 -122.2130 97° East 272 313 4,000 3,660 Climbing FlightAware ADS-B
12:52PM 47.4643 -122.1840 96° East 276 318 5,000 3,900 Climbing FlightAware ADS-B
12:52PM 47.4635 -122.1735 96° East 278 320 5,500 3,960 Climbing FlightAware ADS-B (KPAE)
12:52PM 47.4627 -122.1620 96° East 279 321 5,800 3,600 Climbing FlightAware ADS-B
12:52PM 47.4608 -122.1330 95° East 283 326 6,700 3,720 Climbing FlightAware ADS-B
12:52PM 47.4609 -122.1349 95° East 284 327 6,800 3,960 Climbing FlightAware ADS-B (KPAE)
12:52PM 47.4588 -122.1030 96° East 288 331 7,700 3,600 Climbing FlightAware ADS-B
12:52PM 47.4582 -122.0933 96° East 290 334 8,000 3,360 Climbing FlightAware ADS-B (KPAE)
12:53PM 47.4568 -122.0730 96° East 290 334 8,600 3,780 Climbing FlightAware ADS-B
12:53PM 47.4554 -122.0539 96° East 293 337 9,200 3,660 Climbing FlightAware ADS-B (KPAE)
12:53PM 47.4549 -122.0470 96° East 293 337 9,400 3,480 Climbing FlightAware ADS-B
12:53PM 47.4502 -121.9860 96° East 302 348 11,200 3,480 Climbing FlightAware ADS-B
12:53PM 47.4495 -121.9761 96° East 303 349 11,500 3,000 Climbing FlightAware ADS-B (KPAE)
12:54PM 47.4460 -121.9290 96° East 309 356 12,600 2,340 Climbing FlightAware ADS-B
12:54PM 47.4434 -121.8948 97° East 335 386 13,100 1,320 Climbing FlightAware ADS-B (KPAE)
12:54PM 47.4403 -121.8590 97° East 353 406 13,300 1,320 Climbing FlightAware ADS-B
12:55PM 47.4364 -121.8130 97° East 376 433 13,800 1,800 Climbing FlightAware ADS-B (CYVR)
12:55PM 47.4340 -121.7820 97° East 386 444 14,200 2,520 Climbing FlightAware ADS-B
12:55PM 47.4294 -121.7020 93° East 400 460 15,600 2,640 Climbing FlightAware ADS-B
12:55PM 47.4289 -121.6832 92° East 401 461 15,900 3,240 Climbing FlightAware ADS-B (KPAE)
12:55PM 47.4286 -121.6700 91° East 403 464 16,200 2,700 Climbing FlightAware ADS-B
12:56PM 47.4278 -121.5860 91° East 415 478 17,500 2,700 Climbing FlightAware ADS-B
12:56PM 47.4277 -121.5801 91° East 416 479 17,700 2,640 Climbing FlightAware ADS-B (KPAE)
12:56PM 47.4265 -121.4930 91° East 423 487 19,000 2,700 Climbing FlightAware ADS-B
12:57PM 47.4262 -121.4743 91° East 425 489 19,300 2,220 Climbing FlightAware ADS-B
12:57PM 47.4252 -121.4080 91° East 430 495 20,300 2,460 Climbing FlightAware ADS-B
12:57PM 47.4245 -121.3618 91° East 436 502 21,000 2,760 Climbing FlightAware ADS-B (CYVR)
12:58PM 47.4235 -121.3000 91° East 442 509 21,700 2,160 Climbing FlightAware ADS-B
12:58PM 47.4230 -121.2681 91° East 446 513 22,100 2,400 Climbing FlightAware ADS-B (CYVR)
12:58PM 47.4223 -121.2212 91° East 450 518 22,700 2,160 Climbing FlightAware ADS-B (KPAE)
12:58PM 47.4220 -121.2080 91° East 451 519 22,900 2,220 Climbing FlightAware ADS-B
12:58PM 47.4206 -121.1297 92° East 457 526 23,800 2,400 Climbing FlightAware ADS-B (CYVR)
12:59PM 47.4202 -121.1080 91° East 459 528 24,100 1,980 Climbing FlightAware ADS-B
12:59PM 47.4186 -121.0254 92° East 465 535 24,900 1,800 Climbing FlightAware ADS-B
12:59PM 47.4185 -121.0200 92° East 466 536 25,000 2,040 Climbing FlightAware ADS-B
01:00PM 47.4165 -120.9130 92° East 474 545 26,100 1,920 Climbing FlightAware ADS-B
01:00PM 47.4147 -120.8160 92° East 482 555 27,000 1,860 Climbing FlightAware ADS-B
01:00PM 47.4146 -120.8085 91° East 481 554 27,100 1,980 Climbing FlightAware ADS-B (KPFC)
01:01PM 47.4127 -120.7160 92° East 487 560 28,000 1,740 Climbing FlightAware ADS-B
01:01PM 47.4105 -120.6160 92° East 493 567 28,800 960 Climbing FlightAware ADS-B
01:02PM 47.4081 -120.5100 92° East 514 592 29,000 180 Climbing FlightAware ADS-B
01:02PM 47.4055 -120.4010 92° East 537 618 29,000  Level FlightAware ADS-B
01:03PM 47.4027 -120.2880 92° East 556 640 29,000  Level FlightAware ADS-B
01:03PM 47.3996 -120.1730 93° East 557 641 29,000 -240 Level FlightAware ADS-B
01:04PM 47.3956 -120.0560 93° East 561 646 28,800  Descending FlightAware ADS-B
01:04PM 47.3908 -119.9400 94° East 560 644 29,000 -300 Climbing FlightAware ADS-B
01:05PM 47.3852 -119.8250 95° East 567 652 28,500 -720 Descending FlightAware ADS-B
01:05PM 47.3818 -119.7490 91° East 568 654 28,400 -420 Descending FlightAware ADS-B
01:05PM 47.4129 -120.7240 77° East 568 654 28,300 -240 Descending FlightAware ADS-B
01:05PM 47.3949 -119.6490 76° East 566 651 28,300  Level FlightAware ADS-B
01:06PM 47.3968 -119.6340 80° East 566 651 28,300  Level FlightAware ADS-B
01:06PM 47.3979 -119.5810 93° East 567 652 28,300 120 Level FlightAware ADS-B
01:06PM 47.3802 -119.4840 112° Southeast 564 649 28,400 -60 Climbing FlightAware ADS-B
01:09PM 47.2209 -118.9930 116° Southeast 560 644 28,200 -120 Descending FlightAware ADS-B
01:09PM 47.2138 -118.9780 127° Southeast 556 640 28,200 -300 Level FlightAware ADS-B
01:10PM 47.1550 -118.7933 127° Southeast 567 652 27,900 -300 Descending Salt Lake Center
01:11PM 47.0672 -118.6083 125° Southeast 563 648 27,700  Descending Salt Lake Center
01:12PM 46.9731 -118.4303 128° Southeast 557 641 28,000 60 Climbing Salt Lake Center
01:13PM 46.8978 -118.2528 122° Southeast 527 606 27,900  Descending Salt Lake Center
01:14PM 46.8339 -118.0986 121° Southeast 467 537 28,000  Climbing Salt Lake Center
01:15PM 46.7633 -117.9308 122° Southeast 442 509 28,000  Level Seattle Center
01:16PM 46.6983 -117.7814 122° Southeast 441 507 28,000  Level Seattle Center
01:17PM 46.6333 -117.6278 122° Southeast 442 509 28,000 480 Level Seattle Center
01:18PM 46.5683 -117.4731 121° Southeast 444 511 29,000 480 Climbing Seattle Center
01:19PM 46.5011 -117.3189 122° Southeast 448 516 29,000  Level Seattle Center
01:20PM 46.4183 -117.1222 121° Southeast 478 550 29,000  Level Seattle Center
01:21PM 46.3372 -116.9381 122° Southeast 538 619 29,000 -60 Level Seattle Center
01:22PM 46.2511 -116.7522 124° Southeast 555 639 28,900 -1,020 Descending Seattle Center
01:23PM 46.1669 -116.5669 123° Southeast 555 639 27,000 540 Descending Seattle Center
01:24PM 46.0969 -116.4075 122° Southeast 484 557 30,000 1,440 Climbing Seattle Center
01:25PM 46.0336 -116.2578 121° Southeast 445 512 30,000  Level Seattle Center
01:26PM 45.9736 -116.1075 120° Southeast 435 501 30,000  Level Salt Lake Center
01:27PM 45.9225 -115.9533 115° Southeast 430 495 30,000  Level Salt Lake Center
01:28PM 45.8411 -115.8267 133° Southeast 440 506 30,000  Level Seattle Center
01:29PM 45.7764 -115.7178 130° Southeast 447 514 30,000  Level Seattle Center
01:30PM 45.7067 -115.5825 126° Southeast 467 537 30,000  Level Seattle Center
01:31PM 45.6664 -115.6794 239° Southwest 376 433 30,000  Level Seattle Center
01:32PM 45.7325 -115.7808 313° West 354 407 30,000  Level Seattle Center
01:33PM 45.8133 -115.9033 313° West 352 405 30,000  Level Seattle Center
01:34PM 45.8822 -116.0094 313° West 362 417 30,000  Level Seattle Center
01:35PM 45.9339 -116.1353 301° West 364 419 30,000  Level Seattle Center
01:36PM 45.9808 -116.2692 297° West 371 427 30,000  Level Seattle Center
01:37PM 46.0275 -116.3975 298° West 370 426 30,000  Level Seattle Center
01:38PM 46.0786 -116.5247 300° West 369 425 30,000 1,440 Level Seattle Center
01:39PM 46.1306 -116.6456 302° West 362 417 33,000 1,440 Climbing Seattle Center
01:40PM 46.1828 -116.7692 301° West 362 417 33,000  Level Seattle Center
01:41PM 46.2419 -116.8969 304° West 377 434 33,000  Level Seattle Center
01:42PM 46.3025 -117.0339 303° West 400 460 33,000  Level Seattle Center
01:43PM 46.3667 -117.1733 304° West 416 479 33,000  Level Seattle Center
01:44PM 46.4339 -117.3414 298° West 407 468 33,000  Level Seattle Center
01:45PM 46.5265 -117.7313 298° West  Level FlightAware Approximate
01:45PM 46.4750 -117.4556 298° West 396 456 33,000  Level Seattle Center
01:46PM 46.5367 -117.6256 298° West 396 456 33,000  Level Seattle Center
01:47PM 46.5906 -117.7603 300° West 394 453 33,000 240 Level Seattle Center
01:55PM 46.9911 -118.8630 1000° North 392 451 35,500 300 Climbing FlightAware ADS-B
01:55PM 46.9947 -118.8750 294° West 397 457 35,500 -180 Level FlightAware ADS-B
01:55PM 47.0176 -118.9540 292° West 400 460 35,400 -240 Descending FlightAware ADS-B
01:56PM 47.0397 -119.0370 290° West 403 464 35,300 -240 Descending FlightAware ADS-B
01:56PM 47.0571 -119.1140 287° West 403 464 35,200 60 Descending FlightAware ADS-B
01:57PM 47.0770 -119.2180 286° West 411 473 35,400 600 Climbing FlightAware ADS-B
01:58PM 47.0926 -119.3030 285° West 421 484 35,900 60 Climbing FlightAware ADS-B
01:58PM 47.1070 -119.3880 283° West 433 498 35,500 -780 Descending FlightAware ADS-B
01:59PM 47.1178 -119.4540 285° West 437 503 35,200 -840 Descending FlightAware ADS-B
01:59PM 47.1218 -119.4710 291° West 439 505 35,100  Descending FlightAware ADS-B
01:59PM 47.1317 -119.4970 303° West 439 505 35,200 900 Climbing FlightAware ADS-B
01:59PM 47.1429 -119.5150 313° West 441 507 35,400 1,200 Climbing FlightAware ADS-B
01:59PM 47.1533 -119.5280 322° Northwest 445 512 35,500 840 Climbing FlightAware ADS-B
01:59PM 47.1668 -119.5400 331° Northwest 453 521 35,600 240 Climbing FlightAware ADS-B
01:59PM 47.1928 -119.5540 345° North 467 537 35,600  Level FlightAware ADS-B
02:00PM 47.2144 -119.5590 354° North 478 550 35,600  Level FlightAware ADS-B
02:00PM 47.2274 -119.5590 North 484 557 35,600 -300 Level FlightAware ADS-B
02:00PM 47.2647 -119.5500 14° North 500 575 35,500 -480 Descending FlightAware ADS-B
02:00PM 47.2853 -119.5380 27° Northeast 508 585 35,400 -240 Descending FlightAware ADS-B
02:00PM 47.3169 -119.5000 47° Northeast 511 588 35,400 300 Level FlightAware ADS-B
02:01PM 47.3328 -119.3069 114° Southeast 522 601 35,800 -60 Climbing FlightAware ADS-B
02:04PM 47.1390 -118.8630 125° Southeast 513 590 35,200 -360 Descending FlightAware ADS-B
02:04PM 47.1320 -118.8440 116° Southeast 517 595 35,000 -1,620 Descending FlightAware ADS-B
02:05PM 47.0375 -118.6519 116° Southeast 512 589 33,000 -900 Descending Salt Lake Center
02:06PM 46.9425 -118.5081 134° Southeast 498 573 33,000  Level Salt Lake Center
02:07PM 46.8619 -118.3414 125° Southeast 501 577 33,000  Level Salt Lake Center
02:08PM 46.7761 -118.1481 123° Southeast 503 579 33,000  Level Seattle Center
02:10PM 46.6969 -117.9333 118° Southeast 504 580 33,000 -1,500 Level Seattle Center
02:11PM 46.6372 -117.7614 117° Southeast 485 558 30,000 -1,500 Descending Seattle Center
02:12PM 46.5758 -117.5936 118° Southeast 478 550 30,000  Level Seattle Center
02:13PM 46.5083 -117.4289 121° Southeast 477 549 30,000 -480 Level Seattle Center
02:14PM 46.4433 -117.2664 120° Southeast 476 548 29,100 -540 Descending Seattle Center
02:15PM 46.3708 -117.0903 121° Southeast 496 571 29,000 -120 Descending Seattle Center
02:16PM 46.2939 -116.8942 120° Southeast 549 632 28,900  Descending Seattle Center
02:17PM 46.2175 -116.6964 119° Southeast 561 646 29,000 -960 Climbing Seattle Center
02:18PM 46.1431 -116.4969 118° Southeast 565 650 27,000 -1,020 Descending Seattle Center
02:19PM 46.0619 -116.2533 116° Southeast 564 649 27,000  Level Seattle Center
02:20PM 46.0017 -116.0433 112° Southeast 564 649 27,000  Level Salt Lake Center
02:22PM 45.8078 -116.0661 185° South 536 617 27,000  Level Seattle Center
02:23PM 45.8781 -116.2300 302° West 511 588 27,000  Level Seattle Center
02:25PM 46.0256 -116.5061 308° West 446 513 27,000 -1,020 Level Salt Lake Center
02:26PM 46.0881 -116.6267 307° West 401 461 24,000 -1,560 Descending Seattle Center
02:27PM 46.1383 -116.7572 299° West 384 442 24,000 -4,920 Level Seattle Center
02:28PM 46.1886 -116.8858 299° West 376 433 14,000 -4,920 Descending Seattle Center
02:29PM 46.2581 -117.0242 306° West 368 423 14,000  Level Seattle Center
02:30PM 46.3058 -117.1372 301° West 350 403 14,000  Level Seattle Center
02:31PM 46.3494 -117.2536 299° West 339 390 14,000  Level Seattle Center
02:32PM 46.3803 -117.3814 289° West 330 380 14,000  Level Seattle Center
02:33PM 46.4275 -117.4922 302° West 324 373 14,000  Level Seattle Center
02:34PM 46.4683 -117.6042 298° West 324 373 14,000  Level Seattle Center
02:35PM 46.5164 -117.7058 305° West 317 365 14,000  Level Seattle Center
02:37PM 46.8401 -118.5457 299° West  Level FlightAware Approximate